Time;durP1;ratioP1;P1;durP2;ratioP2;P2;SDS_P1;SDS_P2;PMS_P1;PMS_P2;Temp;Humidity;BMP_temperature;BMP_pressure;BME280_temperature;BME280_humidity;BME280_pressure;Samples;Min_cycle;Max_cycle;Signal;HPM_P1;HPM_P2
2022/03/28 00:03:46;;;;;;;4.15;2.00;;;17.50;56.20;;;;;;10411630;28;20105;-59
2022/03/28 00:08:47;;;;;;;4.95;1.90;;;17.50;56.30;;;;;;10355776;28;20132;-59
2022/03/28 00:13:48;;;;;;;6.05;2.28;;;17.50;56.20;;;;;;10369968;28;20513;-60
2022/03/28 00:18:49;;;;;;;7.10;2.08;;;17.40;56.10;;;;;;10369725;28;20112;-60
2022/03/28 00:23:49;;;;;;;5.70;2.28;;;17.40;56.10;;;;;;10370434;28;20390;-58
2022/03/28 00:28:50;;;;;;;6.80;2.92;;;17.40;56.10;;;;;;10369954;28;20080;-59
2022/03/28 00:33:51;;;;;;;5.28;2.50;;;17.40;56.10;;;;;;10357503;28;20106;-59
2022/03/28 00:38:51;;;;;;;4.07;1.95;;;17.40;56.20;;;;;;10329839;28;20042;-60
2022/03/28 00:43:55;;;;;;;4.93;2.15;;;17.40;56.10;;;;;;10332820;28;20026;-60
2022/03/28 00:48:56;;;;;;;5.90;2.13;;;17.40;56.00;;;;;;10337847;28;20038;-59
2022/03/28 00:53:58;;;;;;;6.35;3.72;;;17.30;56.10;;;;;;10346957;28;20109;-59
2022/03/28 00:58:59;;;;;;;5.00;2.70;;;17.30;55.90;;;;;;10357107;28;20573;-58
2022/03/28 01:04:00;;;;;;;5.65;1.95;;;17.30;56.00;;;;;;10347560;28;20161;-60
2022/03/28 01:09:01;;;;;;;3.80;1.83;;;17.30;56.50;;;;;;10365973;28;20524;-59
2022/03/28 01:14:02;;;;;;;5.35;2.08;;;17.30;55.90;;;;;;10377141;28;20120;-59
2022/03/28 01:19:03;;;;;;;4.53;2.50;;;17.30;55.90;;;;;;10377353;28;20120;-59
2022/03/28 01:24:04;;;;;;;4.65;2.30;;;17.30;55.80;;;;;;10377016;28;20459;-60
2022/03/28 01:29:05;;;;;;;6.40;2.75;;;17.30;56.00;;;;;;10377321;28;20076;-59
2022/03/28 01:34:06;;;;;;;5.20;2.08;;;17.30;55.90;;;;;;10396965;28;20037;-59
2022/03/28 01:39:07;;;;;;;6.80;2.40;;;17.20;55.90;;;;;;10416227;28;20049;-60
2022/03/28 01:44:08;;;;;;;5.30;2.33;;;17.20;55.90;;;;;;10370528;28;20052;-60
2022/03/28 01:49:08;;;;;;;4.78;2.17;;;17.20;55.80;;;;;;10375858;28;20038;-59
2022/03/28 01:54:09;;;;;;;5.40;1.98;;;17.20;55.80;;;;;;10378013;28;20116;-59
2022/03/28 01:59:11;;;;;;;4.72;1.95;;;17.20;55.70;;;;;;10379659;28;20044;-59
2022/03/28 02:04:13;;;;;;;6.82;2.55;;;17.20;55.50;;;;;;10375617;28;20029;-59
2022/03/28 02:09:13;;;;;;;4.53;1.77;;;17.20;55.60;;;;;;10375028;28;20064;-59
2022/03/28 02:14:14;;;;;;;4.38;1.92;;;17.20;55.50;;;;;;10374864;28;20532;-60
2022/03/28 02:19:15;;;;;;;5.55;2.05;;;17.20;55.50;;;;;;10374959;28;20069;-59
2022/03/28 02:24:15;;;;;;;5.05;2.28;;;17.20;55.50;;;;;;10402374;28;20029;-59
2022/03/28 02:29:16;;;;;;;4.88;2.05;;;17.30;55.30;;;;;;10414251;28;20033;-59
2022/03/28 02:34:17;;;;;;;4.78;2.10;;;17.30;55.10;;;;;;10398772;28;20050;-59
2022/03/28 02:39:17;;;;;;;6.85;2.63;;;17.30;55.10;;;;;;10374989;28;20117;-59
2022/03/28 02:44:19;;;;;;;5.32;2.00;;;17.30;55.10;;;;;;10374140;28;20026;-60
2022/03/28 02:49:19;;;;;;;4.93;2.25;;;17.20;55.40;;;;;;10385349;28;20025;-59
2022/03/28 02:54:20;;;;;;;4.22;2.20;;;17.20;55.50;;;;;;10368928;28;20740;-59
2022/03/28 02:59:21;;;;;;;4.35;1.85;;;17.20;55.40;;;;;;10378280;28;20101;-60
2022/03/28 03:04:21;;;;;;;3.42;1.95;;;17.20;55.20;;;;;;10413736;28;20474;-60
2022/03/28 03:09:22;;;;;;;4.03;1.77;;;17.20;55.30;;;;;;10411810;28;20053;-60
2022/03/28 03:14:23;;;;;;;4.70;1.83;;;17.20;55.40;;;;;;10413223;28;20101;-59
2022/03/28 03:19:24;;;;;;;4.78;2.22;;;17.30;55.50;;;;;;10393076;28;20088;-59
2022/03/28 03:24:25;;;;;;;3.28;2.03;;;17.30;55.50;;;;;;10382236;28;20033;-60
2022/03/28 03:29:25;;;;;;;5.50;2.45;;;17.30;55.50;;;;;;10369271;28;20512;-59
2022/03/28 03:34:27;;;;;;;5.20;2.58;;;17.30;55.30;;;;;;10371901;28;20030;-58
2022/03/28 03:39:28;;;;;;;5.57;2.28;;;17.30;54.70;;;;;;10371685;28;20394;-59
2022/03/28 03:44:29;;;;;;;3.45;2.08;;;17.20;54.60;;;;;;10372064;28;20109;-59
2022/03/28 03:49:30;;;;;;;3.22;2.00;;;17.20;54.50;;;;;;10372062;28;20456;-58
2022/03/28 03:54:31;;;;;;;7.45;2.63;;;17.20;54.50;;;;;;10375153;28;20440;-58
2022/03/28 03:59:32;;;;;;;4.22;1.98;;;17.20;54.70;;;;;;10378086;28;20029;-59
2022/03/28 04:04:33;;;;;;;6.15;2.50;;;17.20;54.80;;;;;;10379865;28;20029;-59
2022/03/28 04:09:34;;;;;;;5.13;1.90;;;17.20;54.90;;;;;;10359904;28;20427;-59
2022/03/28 04:14:35;;;;;;;6.95;2.65;;;17.20;54.80;;;;;;10372582;28;20073;-60
2022/03/28 04:19:35;;;;;;;3.90;1.50;;;17.10;54.70;;;;;;10370675;28;20037;-60
2022/03/28 04:24:36;;;;;;;5.65;1.80;;;17.10;55.10;;;;;;10370532;28;20147;-60
2022/03/28 04:29:37;;;;;;;5.03;2.22;;;17.10;55.50;;;;;;10371406;28;20056;-59
2022/03/28 04:34:37;;;;;;;4.57;1.73;;;17.20;54.70;;;;;;10385540;28;20577;-60
2022/03/28 04:39:38;;;;;;;4.30;1.60;;;17.10;54.90;;;;;;10410027;28;20065;-59
2022/03/28 04:44:39;;;;;;;4.50;1.90;;;17.20;54.90;;;;;;10394208;28;20130;-59
2022/03/28 04:49:39;;;;;;;6.88;1.98;;;17.20;54.30;;;;;;10376428;28;20033;-60
2022/03/28 04:54:40;;;;;;;7.32;2.20;;;17.20;54.10;;;;;;10387891;28;20029;-59
2022/03/28 04:59:41;;;;;;;4.50;2.28;;;17.20;54.00;;;;;;10389164;28;20054;-59
2022/03/28 05:04:42;;;;;;;3.70;1.95;;;17.20;54.50;;;;;;10369649;28;20030;-59
2022/03/28 05:09:42;;;;;;;4.47;1.63;;;17.20;54.50;;;;;;10372539;28;20050;-60
2022/03/28 05:14:43;;;;;;;6.53;2.10;;;17.20;54.60;;;;;;10366449;28;20065;-60
2022/03/28 05:19:44;;;;;;;4.20;2.00;;;17.20;54.60;;;;;;10368390;28;20609;-60
2022/03/28 05:24:45;;;;;;;8.23;2.30;;;17.20;54.80;;;;;;10376699;28;20410;-59
2022/03/28 05:29:47;;;;;;;7.88;2.15;;;17.20;56.10;;;;;;10358610;28;20501;-61
2022/03/28 05:34:48;;;;;;;9.13;2.75;;;17.30;55.70;;;;;;10387501;28;20120;-60
2022/03/28 05:39:49;;;;;;;6.50;2.17;;;17.30;56.00;;;;;;10418004;28;20030;-60
2022/03/28 05:44:50;;;;;;;13.10;3.72;;;17.30;56.10;;;;;;10362761;28;20056;-59
2022/03/28 05:49:51;;;;;;;9.00;2.70;;;17.20;56.30;;;;;;10372689;28;20104;-59
2022/03/28 05:54:51;;;;;;;8.32;2.50;;;17.30;56.50;;;;;;10388976;28;20083;-60
2022/03/28 05:59:52;;;;;;;7.00;2.22;;;17.10;56.30;;;;;;10376420;28;20113;-60
2022/03/28 06:04:53;;;;;;;5.03;1.95;;;17.10;56.20;;;;;;10376275;28;20061;-60
2022/03/28 06:09:53;;;;;;;2.85;1.60;;;17.10;56.30;;;;;;10371509;28;20070;-60
2022/03/28 06:14:54;;;;;;;4.25;1.90;;;17.00;56.40;;;;;;10376254;28;20085;-60
2022/03/28 06:19:55;;;;;;;6.82;2.95;;;17.00;56.50;;;;;;10375388;28;20053;-60
2022/03/28 06:24:56;;;;;;;3.67;1.63;;;17.00;56.60;;;;;;10375630;28;20104;-60
2022/03/28 06:29:57;;;;;;;8.20;1.80;;;17.00;56.40;;;;;;10377681;28;20457;-60
2022/03/28 06:34:57;;;;;;;6.55;2.65;;;17.00;56.10;;;;;;10372859;28;20038;-59
2022/03/28 06:39:58;;;;;;;8.07;2.72;;;17.00;56.60;;;;;;10394553;28;20148;-60
2022/03/28 06:44:59;;;;;;;4.75;1.80;;;17.00;56.30;;;;;;10401568;28;20105;-61
2022/03/28 06:50:00;;;;;;;6.47;2.25;;;17.00;56.00;;;;;;10406044;28;20065;-60
2022/03/28 06:55:02;;;;;;;7.82;2.22;;;17.00;55.80;;;;;;10389533;28;20144;-60
2022/03/28 07:00:06;;;;;;;5.18;2.17;;;17.00;55.90;;;;;;10386048;28;20124;-60
2022/03/28 07:05:07;;;;;;;6.07;2.55;;;17.00;56.20;;;;;;10390766;28;20545;-61
2022/03/28 07:10:13;;;;;;;5.63;2.60;;;17.00;56.50;;;;;;10367624;28;20482;-60
2022/03/28 07:15:14;;;;;;;6.63;1.98;;;17.00;56.10;;;;;;10373474;28;20490;-59
2022/03/28 07:20:15;;;;;;;6.57;2.10;;;17.00;56.50;;;;;;10374329;28;20486;-60
2022/03/28 07:25:16;;;;;;;5.57;2.17;;;17.00;56.70;;;;;;10386473;28;20030;-59
2022/03/28 07:30:18;;;;;;;4.35;2.00;;;17.00;56.80;;;;;;10373102;28;20359;-58
2022/03/28 07:35:21;;;;;;;7.07;2.60;;;16.90;57.00;;;;;;10372633;28;20478;-60
2022/03/28 07:40:21;;;;;;;5.75;1.77;;;16.90;56.70;;;;;;10372142;28;20034;-60
2022/03/28 07:45:23;;;;;;;5.45;2.28;;;16.90;56.80;;;;;;10386511;28;20100;-59
2022/03/28 07:50:24;;;;;;;4.53;1.95;;;16.90;56.90;;;;;;10413243;28;20021;-59
2022/03/28 07:55:26;;;;;;;3.55;1.80;;;16.90;56.90;;;;;;10395059;28;20046;-60
2022/03/28 08:00:28;;;;;;;3.95;1.80;;;16.90;56.60;;;;;;10371742;28;20044;-60
2022/03/28 08:05:29;;;;;;;4.35;1.90;;;16.90;56.60;;;;;;10370229;28;20029;-60
2022/03/28 08:10:30;;;;;;;4.75;2.47;;;16.90;56.60;;;;;;10373238;28;20037;-59
2022/03/28 08:15:31;;;;;;;9.75;2.80;;;16.90;56.60;;;;;;10382959;28;20112;-60
2022/03/28 08:20:31;;;;;;;11.82;2.58;;;16.90;56.70;;;;;;10391203;28;20082;-60
2022/03/28 08:25:32;;;;;;;4.28;1.30;;;16.90;56.80;;;;;;10406403;28;20089;-60
2022/03/28 08:30:35;;;;;;;6.75;1.70;;;16.90;56.90;;;;;;10375592;28;20034;-60
2022/03/28 08:35:37;;;;;;;5.05;1.73;;;16.90;56.80;;;;;;10397962;28;20048;-59
2022/03/28 08:40:40;;;;;;;4.03;1.70;;;17.00;57.00;;;;;;10380958;28;20036;-61
2022/03/28 08:45:42;;;;;;;7.18;1.80;;;17.00;56.90;;;;;;10381572;28;20029;-59
2022/03/28 08:50:52;;;;;;;5.55;2.22;;;17.00;56.90;;;;;;10382625;28;20468;-60
2022/03/28 08:55:52;;;;;;;4.72;2.13;;;17.00;56.80;;;;;;10381335;28;20034;-60
2022/03/28 09:00:54;;;;;;;5.05;2.00;;;17.00;56.80;;;;;;10370641;28;20493;-60
2022/03/28 09:05:54;;;;;;;4.55;2.33;;;17.00;56.80;;;;;;10368526;28;20434;-60
2022/03/28 09:10:55;;;;;;;5.50;2.13;;;17.00;56.80;;;;;;10375577;28;20065;-60
2022/03/28 09:16:00;;;;;;;7.50;2.20;;;17.00;56.80;;;;;;10376304;28;20030;-60
2022/03/28 09:21:07;;;;;;;4.05;2.10;;;17.10;56.80;;;;;;10376979;28;20470;-60
2022/03/28 09:26:16;;;;;;;6.88;2.65;;;17.10;56.80;;;;;;10373454;28;20021;-60
2022/03/28 09:31:37;;;;;;;5.03;1.75;;;17.10;56.80;;;;;;10377456;28;20048;-60
2022/03/28 09:36:43;;;;;;;3.60;1.48;;;17.10;56.90;;;;;;10412717;28;20357;-60
2022/03/28 09:41:59;;;;;;;3.88;1.58;;;17.10;56.70;;;;;;10418111;28;20064;-60
2022/03/28 09:47:17;;;;;;;2.90;1.45;;;17.10;56.70;;;;;;10377774;28;20042;-60
2022/03/28 09:52:22;;;;;;;7.18;1.80;;;17.20;56.70;;;;;;10376217;28;20044;-60
2022/03/28 09:57:32;;;;;;;6.97;2.03;;;17.20;56.60;;;;;;10385419;28;20049;-61
2022/03/28 10:02:35;;;;;;;3.75;1.58;;;17.30;56.60;;;;;;10373504;28;20501;-60
2022/03/28 10:07:36;;;;;;;2.63;1.40;;;17.30;56.60;;;;;;10372131;28;20129;-61
2022/03/28 10:12:38;;;;;;;3.85;1.52;;;17.30;56.40;;;;;;10376153;28;20053;-60
2022/03/28 10:17:41;;;;;;;2.80;1.60;;;17.30;56.40;;;;;;10375651;28;20117;-60
2022/03/28 10:22:47;;;;;;;3.30;1.90;;;17.40;56.50;;;;;;10384450;28;20030;-61
2022/03/28 10:27:52;;;;;;;4.00;2.10;;;17.40;56.40;;;;;;10371491;28;20508;-61
2022/03/28 10:33:27;;;;;;;3.70;1.90;;;17.50;56.30;;;;;;10375353;28;20124;-60
2022/03/28 10:38:28;;;;;;;3.08;1.92;;;17.50;56.30;;;;;;10326824;28;20192;-60
2022/03/28 10:43:33;;;;;;;4.45;1.70;;;17.50;56.30;;;;;;10370094;28;20080;-60
2022/03/28 10:48:53;;;;;;;5.88;2.30;;;17.50;56.20;;;;;;10383506;28;20048;-60
2022/03/28 10:54:07;;;;;;;2.28;1.38;;;17.60;56.30;;;;;;10399245;28;20033;-60
2022/03/28 10:59:15;;;;;;;3.70;1.75;;;17.60;56.20;;;;;;10371560;28;20030;-60
2022/03/28 11:04:19;;;;;;;2.75;1.50;;;17.60;56.30;;;;;;10374011;28;20040;-60
2022/03/28 11:09:50;;;;;;;3.45;1.58;;;17.60;56.30;;;;;;10373710;28;20127;-60
2022/03/28 11:14:50;;;;;;;2.75;1.60;;;17.60;56.20;;;;;;10402607;28;20064;-60
2022/03/28 11:20:11;;;;;;;2.63;1.50;;;17.70;56.30;;;;;;10414409;28;20582;-60
2022/03/28 11:25:31;;;;;;;3.20;1.45;;;17.70;56.20;;;;;;10397042;28;20037;-60
2022/03/28 11:30:35;;;;;;;3.63;1.65;;;17.80;56.30;;;;;;10413569;28;20029;-61
2022/03/28 11:35:38;;;;;;;3.03;1.80;;;17.80;56.30;;;;;;10371715;28;20057;-60
2022/03/28 11:40:41;;;;;;;4.30;2.03;;;17.80;56.40;;;;;;10372600;28;20466;-60
2022/03/28 11:45:49;;;;;;;3.47;1.52;;;17.80;56.30;;;;;;10370971;28;20544;-60
2022/03/28 11:50:50;;;;;;;3.80;1.50;;;17.80;56.40;;;;;;10413656;28;20477;-60
2022/03/28 11:55:55;;;;;;;2.35;1.40;;;17.80;56.30;;;;;;10381021;28;20030;-60
2022/03/28 12:01:07;;;;;;;3.42;1.70;;;17.90;56.30;;;;;;10371656;28;20042;-61
2022/03/28 12:06:08;;;;;;;3.72;1.85;;;17.90;56.40;;;;;;10371865;28;20505;-60
2022/03/28 12:11:13;;;;;;;4.95;2.10;;;17.90;56.30;;;;;;10371889;28;20083;-60
2022/03/28 12:16:13;;;;;;;4.10;1.52;;;17.90;56.30;;;;;;10372053;28;20045;-60
2022/03/28 12:21:18;;;;;;;4.13;1.48;;;18.00;56.10;;;;;;10371524;28;20375;-60
2022/03/28 12:26:19;;;;;;;3.30;2.00;;;18.00;56.80;;;;;;10371531;28;20148;-60
2022/03/28 12:31:21;;;;;;;3.63;1.60;;;18.00;57.20;;;;;;10371449;28;20033;-60
2022/03/28 12:36:28;;;;;;;2.65;1.30;;;18.00;57.70;;;;;;10373654;28;20577;-59
2022/03/28 12:41:29;;;;;;;2.72;1.23;;;18.10;57.90;;;;;;10388959;28;20146;-60
2022/03/28 12:46:30;;;;;;;2.55;1.60;;;18.10;58.10;;;;;;10383958;28;20064;-60
2022/03/28 12:51:38;;;;;;;3.13;1.55;;;18.10;58.20;;;;;;10379252;28;20076;-60
2022/03/28 12:56:57;;;;;;;5.53;2.38;;;18.10;58.20;;;;;;10391454;28;20029;-60
2022/03/28 13:02:18;;;;;;;6.82;2.10;;;18.20;58.20;;;;;;10378317;28;20029;-60
2022/03/28 13:07:29;;;;;;;3.17;1.50;;;18.10;58.20;;;;;;10388560;28;20041;-60
2022/03/28 13:12:41;;;;;;;3.60;1.92;;;18.20;58.20;;;;;;10419567;28;20505;-60
2022/03/28 13:17:46;;;;;;;4.10;2.03;;;18.20;58.00;;;;;;10419253;28;20029;-60
2022/03/28 13:22:47;;;;;;;3.05;1.55;;;18.20;58.00;;;;;;10418595;28;20029;-60
2022/03/28 13:28:05;;;;;;;3.85;1.65;;;18.20;57.90;;;;;;10418822;28;20025;-60
2022/03/28 13:33:06;;;;;;;3.83;2.15;;;18.20;57.90;;;;;;10365184;28;20030;-60
2022/03/28 13:38:10;;;;;;;3.50;1.60;;;18.30;57.80;;;;;;10377778;28;20026;-60
2022/03/28 13:43:11;;;;;;;3.80;1.98;;;18.30;57.70;;;;;;10377175;28;20064;-60
2022/03/28 13:48:14;;;;;;;3.95;1.80;;;18.30;57.50;;;;;;10413816;28;20022;-60
2022/03/28 13:53:15;;;;;;;3.58;2.42;;;18.30;57.50;;;;;;10406111;28;20096;-60
2022/03/28 13:58:16;;;;;;;4.90;1.92;;;18.30;57.40;;;;;;10376493;28;20445;-60
2022/03/28 14:03:16;;;;;;;4.60;2.03;;;18.20;57.50;;;;;;10376249;28;20126;-60
2022/03/28 14:08:21;;;;;;;4.35;2.75;;;18.20;57.50;;;;;;10376057;28;20466;-60
2022/03/28 14:13:22;;;;;;;6.40;2.25;;;18.30;57.50;;;;;;10376024;28;20034;-59
2022/03/28 14:18:23;;;;;;;2.80;1.60;;;18.30;57.20;;;;;;10376008;28;20494;-60
2022/03/28 14:23:26;;;;;;;5.28;2.13;;;18.30;57.20;;;;;;10371242;28;20034;-60
2022/03/28 14:28:27;;;;;;;5.05;1.63;;;18.30;57.30;;;;;;10375390;28;20117;-60
2022/03/28 14:33:29;;;;;;;3.35;1.75;;;18.30;57.10;;;;;;10379922;28;20033;-60
2022/03/28 14:38:31;;;;;;;5.75;2.13;;;18.20;57.30;;;;;;10415982;28;20029;-61
2022/03/28 14:43:31;;;;;;;4.80;2.00;;;18.20;57.20;;;;;;10403918;28;20026;-60
2022/03/28 14:48:33;;;;;;;4.03;1.80;;;18.20;57.20;;;;;;10357269;28;20109;-60
2022/03/28 14:53:34;;;;;;;5.40;1.95;;;18.10;57.30;;;;;;10387173;28;20037;-60
2022/03/28 14:58:34;;;;;;;3.60;1.98;;;18.20;57.40;;;;;;10374802;28;20058;-59
2022/03/28 15:03:35;;;;;;;6.90;2.55;;;18.20;57.60;;;;;;10373292;28;20050;-59
2022/03/28 15:08:36;;;;;;;4.90;1.60;;;18.20;57.40;;;;;;10374280;28;20117;-60
2022/03/28 15:13:36;;;;;;;3.40;2.28;;;18.20;57.40;;;;;;10373893;28;20820;-60
2022/03/28 15:18:38;;;;;;;7.05;2.30;;;18.20;57.40;;;;;;10373831;28;20030;-60
2022/03/28 15:23:39;;;;;;;3.60;1.92;;;18.20;57.30;;;;;;10355583;28;20489;-59
2022/03/28 15:28:40;;;;;;;5.75;1.75;;;18.20;57.20;;;;;;10373425;28;20060;-60
2022/03/28 15:33:41;;;;;;;3.42;1.65;;;18.20;57.10;;;;;;10382895;28;20040;-59
2022/03/28 15:38:42;;;;;;;7.43;2.38;;;18.20;57.20;;;;;;10395096;28;20400;-61
2022/03/28 15:43:42;;;;;;;3.13;1.80;;;18.10;57.20;;;;;;10373185;28;20038;-61
2022/03/28 15:48:43;;;;;;;2.75;1.50;;;18.10;57.00;;;;;;10402747;28;20113;-61
2022/03/28 15:53:46;;;;;;;3.08;1.48;;;18.10;57.10;;;;;;10384876;28;20083;-61
2022/03/28 15:58:47;;;;;;;4.00;1.77;;;18.10;57.00;;;;;;10412524;28;20450;-61
2022/03/28 16:03:48;;;;;;;5.55;2.83;;;18.10;57.00;;;;;;10412134;28;20043;-61
2022/03/28 16:08:49;;;;;;;17.95;3.15;;;18.00;56.90;;;;;;10412683;28;20579;-58
2022/03/28 16:13:50;;;;;;;56.42;7.80;;;18.00;57.20;;;;;;10394672;28;20164;-59
2022/03/28 16:18:51;;;;;;;30.40;5.60;;;18.10;57.40;;;;;;10402077;28;20029;-60
2022/03/28 16:23:53;;;;;;;21.55;4.60;;;18.10;57.20;;;;;;10388602;28;20029;-60
2022/03/28 16:28:56;;;;;;;14.25;3.38;;;18.20;57.30;;;;;;10392629;28;20065;-58
2022/03/28 16:33:57;;;;;;;25.17;5.10;;;18.20;57.50;;;;;;10388989;28;20030;-58
2022/03/28 16:38:58;;;;;;;22.38;4.32;;;18.10;57.40;;;;;;10400376;28;20109;-59
2022/03/28 16:43:59;;;;;;;25.58;5.07;;;18.10;57.40;;;;;;10395491;28;20379;-58
2022/03/28 16:49:00;;;;;;;17.98;4.68;;;18.10;57.70;;;;;;10371597;28;20026;-61
2022/03/28 16:54:02;;;;;;;49.47;7.63;;;18.10;57.90;;;;;;10379466;28;20025;-62
2022/03/28 16:59:03;;;;;;;46.58;9.48;;;18.00;58.70;;;;;;10375446;28;20103;-61
2022/03/28 17:04:04;;;;;;;35.13;7.28;;;18.10;59.00;;;;;;10378857;28;20091;-61
2022/03/28 17:09:05;;;;;;;37.58;8.82;;;18.00;59.20;;;;;;10410648;28;20175;-61
2022/03/28 17:14:06;;;;;;;30.15;8.00;;;17.90;59.30;;;;;;10410073;28;20548;-61
2022/03/28 17:19:06;;;;;;;33.80;8.60;;;17.90;59.40;;;;;;10380808;28;20037;-61
2022/03/28 17:24:07;;;;;;;26.23;6.40;;;17.90;59.40;;;;;;10409897;28;20453;-61
2022/03/28 17:29:09;;;;;;;19.17;7.35;;;17.90;59.40;;;;;;10407083;28;20042;-61
2022/03/28 17:34:17;;;;;;;28.92;7.05;;;17.80;59.40;;;;;;10397347;28;20033;-60
2022/03/28 17:39:19;;;;;;;22.48;6.45;;;17.80;59.60;;;;;;10397052;28;20033;-61
2022/03/28 17:44:21;;;;;;;19.33;5.28;;;17.90;59.80;;;;;;10398784;28;20034;-61
2022/03/28 17:49:22;;;;;;;15.25;5.88;;;17.80;59.50;;;;;;10374777;28;20033;-60
2022/03/28 17:54:23;;;;;;;16.92;5.10;;;17.80;59.70;;;;;;10386301;28;20470;-60
2022/03/28 17:59:24;;;;;;;15.65;5.72;;;17.80;59.40;;;;;;10388824;28;20057;-60
2022/03/28 18:04:27;;;;;;;12.80;4.97;;;17.80;59.40;;;;;;10416437;28;20435;-60
2022/03/28 18:09:33;;;;;;;18.05;4.13;;;17.80;59.30;;;;;;10415948;28;20046;-60
2022/03/28 18:14:34;;;;;;;17.95;4.97;;;17.80;59.30;;;;;;10416174;28;20199;-60
2022/03/28 18:19:35;;;;;;;13.23;4.30;;;17.80;59.20;;;;;;10416148;28;20075;-60
2022/03/28 18:24:37;;;;;;;14.98;4.53;;;17.80;59.10;;;;;;10396590;28;20038;-59
2022/03/28 18:29:38;;;;;;;9.48;4.25;;;17.70;58.80;;;;;;10375330;28;20036;-59
2022/03/28 18:34:39;;;;;;;12.75;3.80;;;17.70;58.70;;;;;;10388831;28;20052;-60
2022/03/28 18:39:40;;;;;;;10.52;3.92;;;17.70;58.60;;;;;;10398639;28;20040;-59
2022/03/28 18:44:41;;;;;;;10.32;4.68;;;17.70;58.50;;;;;;10377731;28;20030;-60
2022/03/28 18:49:41;;;;;;;12.68;3.80;;;17.80;59.60;;;;;;10374917;28;20091;-61
2022/03/28 18:54:42;;;;;;;12.25;4.97;;;17.70;58.60;;;;;;10384418;28;20106;-60
2022/03/28 18:59:43;;;;;;;13.32;4.00;;;17.70;58.60;;;;;;10380074;28;20030;-60
2022/03/28 19:04:43;;;;;;;13.68;3.40;;;17.70;58.60;;;;;;10397588;28;20116;-61
2022/03/28 19:09:46;;;;;;;11.00;3.58;;;17.70;58.70;;;;;;10384347;28;20041;-60
2022/03/28 19:14:48;;;;;;;14.18;4.22;;;17.70;58.70;;;;;;10376704;28;20029;-60
2022/03/28 19:19:49;;;;;;;7.68;3.50;;;17.60;58.70;;;;;;10374530;28;20030;-61
2022/03/28 19:24:50;;;;;;;9.80;3.58;;;17.60;58.70;;;;;;10373510;28;20454;-60
2022/03/28 19:29:51;;;;;;;8.10;2.97;;;17.60;58.70;;;;;;10371874;28;20030;-60
2022/03/28 19:34:52;;;;;;;7.07;2.97;;;17.60;58.70;;;;;;10395499;28;20029;-60
2022/03/28 19:39:53;;;;;;;7.50;3.08;;;17.60;58.60;;;;;;10412069;28;20041;-60
2022/03/28 19:44:54;;;;;;;8.75;3.65;;;17.60;58.60;;;;;;10382297;28;20036;-60
2022/03/28 19:49:55;;;;;;;7.85;2.65;;;17.60;58.50;;;;;;10410141;28;20429;-60
2022/03/28 19:54:55;;;;;;;9.70;2.80;;;17.60;58.50;;;;;;10386432;28;20053;-60
2022/03/28 19:59:56;;;;;;;6.97;2.85;;;17.60;58.40;;;;;;10371165;28;20119;-60
2022/03/28 20:04:57;;;;;;;6.85;4.00;;;17.60;58.30;;;;;;10373041;28;20034;-60
2022/03/28 20:09:57;;;;;;;8.55;3.55;;;17.60;58.20;;;;;;10372636;28;20077;-60
2022/03/28 20:14:58;;;;;;;6.75;2.70;;;17.60;58.30;;;;;;10372619;28;20057;-60
2022/03/28 20:19:59;;;;;;;7.82;3.55;;;17.60;58.30;;;;;;10392518;28;20034;-61
2022/03/28 20:25:03;;;;;;;9.13;2.58;;;17.60;58.20;;;;;;10395568;28;20038;-60
2022/03/28 20:30:04;;;;;;;8.23;2.55;;;17.60;58.20;;;;;;10368958;28;20025;-60
2022/03/28 20:35:07;;;;;;;6.05;2.75;;;17.60;58.20;;;;;;10390258;28;20068;-60
2022/03/28 20:40:09;;;;;;;5.70;2.80;;;17.60;59.00;;;;;;10392612;28;20462;-60
2022/03/28 20:45:11;;;;;;;4.07;2.20;;;17.50;58.10;;;;;;10387908;28;20029;-60
2022/03/28 20:50:12;;;;;;;5.05;2.20;;;17.50;58.20;;;;;;10385382;28;20029;-60
2022/03/28 20:55:13;;;;;;;6.15;3.35;;;17.50;58.10;;;;;;10366928;28;20389;-60
2022/03/28 21:00:15;;;;;;;4.93;2.22;;;17.50;57.90;;;;;;10407955;28;20096;-60
2022/03/28 21:05:15;;;;;;;5.53;2.58;;;17.50;57.90;;;;;;10386008;28;20109;-60
2022/03/28 21:10:16;;;;;;;5.55;2.17;;;17.50;57.90;;;;;;10410109;28;20041;-60
2022/03/28 21:15:18;;;;;;;6.65;2.50;;;17.50;57.90;;;;;;10419509;28;20396;-60
2022/03/28 21:20:19;;;;;;;6.68;2.58;;;17.50;57.70;;;;;;10419070;28;20033;-60
2022/03/28 21:25:19;;;;;;;5.88;3.10;;;17.50;57.70;;;;;;10401824;28;20454;-61
2022/03/28 21:30:20;;;;;;;5.70;2.42;;;17.50;57.80;;;;;;10418154;28;20104;-60
2022/03/28 21:35:21;;;;;;;7.03;3.75;;;17.50;57.60;;;;;;10362452;28;20113;-60
2022/03/28 21:40:22;;;;;;;7.18;2.97;;;17.50;57.60;;;;;;10377105;28;20109;-60
2022/03/28 21:45:23;;;;;;;6.10;3.25;;;17.50;57.60;;;;;;10385700;28;20095;-60
2022/03/28 21:50:24;;;;;;;6.03;2.85;;;17.50;57.60;;;;;;10376407;28;20030;-60
2022/03/28 21:55:25;;;;;;;4.30;2.35;;;17.40;57.40;;;;;;10389324;28;20045;-60
2022/03/28 22:00:47;;;;;;;6.10;2.72;;;17.40;57.50;;;;;;10375766;28;20057;-60
2022/03/28 22:05:49;;;;;;;4.80;2.72;;;17.40;57.50;;;;;;10375389;28;20084;-60
2022/03/28 22:10:52;;;;;;;6.45;2.40;;;17.40;57.50;;;;;;10372124;28;20137;-60
2022/03/28 22:15:53;;;;;;;3.50;2.00;;;17.40;57.50;;;;;;10375201;28;20061;-61
2022/03/28 22:20:56;;;;;;;6.57;2.85;;;17.40;57.40;;;;;;10388480;28;20026;-60
2022/03/28 22:25:56;;;;;;;5.72;2.50;;;17.40;57.40;;;;;;10369521;28;20095;-60
2022/03/28 22:30:57;;;;;;;6.60;2.70;;;17.40;57.40;;;;;;10384554;28;20049;-61
2022/03/28 22:35:58;;;;;;;4.70;2.75;;;17.40;57.40;;;;;;10385503;28;20080;-60
2022/03/28 22:40:59;;;;;;;5.47;3.20;;;17.40;57.30;;;;;;10374274;28;20124;-59
2022/03/28 22:46:00;;;;;;;6.07;3.45;;;17.40;57.40;;;;;;10392685;28;20025;-60
2022/03/28 22:51:00;;;;;;;5.78;2.58;;;17.40;57.30;;;;;;10413827;28;20481;-60
2022/03/28 22:56:01;;;;;;;3.92;2.45;;;17.30;57.30;;;;;;10381349;28;20030;-60
2022/03/28 23:01:03;;;;;;;5.22;2.60;;;17.40;57.30;;;;;;10413887;28;20034;-61
2022/03/28 23:06:04;;;;;;;4.93;2.67;;;17.30;57.20;;;;;;10395402;28;20049;-60
2022/03/28 23:11:04;;;;;;;4.15;2.80;;;17.30;57.20;;;;;;10413955;28;20564;-61
2022/03/28 23:16:05;;;;;;;5.43;2.67;;;17.30;57.20;;;;;;10412813;28;20061;-61
2022/03/28 23:21:06;;;;;;;3.88;2.40;;;17.30;57.20;;;;;;10413643;28;20144;-61
2022/03/28 23:26:06;;;;;;;5.20;2.83;;;17.30;57.20;;;;;;10409924;28;20053;-60
2022/03/28 23:31:07;;;;;;;7.90;3.58;;;17.30;57.20;;;;;;10372305;28;20065;-60
2022/03/28 23:36:08;;;;;;;6.07;3.17;;;17.30;57.20;;;;;;10384997;28;20389;-60
2022/03/28 23:41:09;;;;;;;4.68;3.15;;;17.30;57.80;;;;;;10412533;28;20029;-60
2022/03/28 23:46:10;;;;;;;3.85;3.13;;;17.30;57.20;;;;;;10405469;28;20052;-60
2022/03/28 23:51:10;;;;;;;4.32;2.70;;;17.20;57.10;;;;;;10411524;28;20504;-60
2022/03/28 23:56:11;;;;;;;3.83;2.75;;;17.20;57.10;;;;;;10377578;28;20042;-60
